sensor_id;sensor_type;location;lat;lon;timestamp;pressure;altitude;pressure_sealevel;temperature;humidity
64632;BME280;58358;50.936;0.246;2023-03-25T00:01:24;99571.62;;;4.97;100.00
64632;BME280;58358;50.936;0.246;2023-03-25T00:03:50;99571.54;;;5.20;100.00
64632;BME280;58358;50.936;0.246;2023-03-25T00:06:14;99569.28;;;5.33;100.00
64632;BME280;58358;50.936;0.246;2023-03-25T00:08:39;99586.95;;;5.00;100.00
64632;BME280;58358;50.936;0.246;2023-03-25T00:11:05;99584.68;;;5.15;100.00
64632;BME280;58358;50.936;0.246;2023-03-25T00:13:31;99589.89;;;5.01;100.00
64632;BME280;58358;50.936;0.246;2023-03-25T00:15:57;99587.37;;;5.33;100.00
64632;BME280;58358;50.936;0.246;2023-03-25T00:18:23;99588.60;;;5.21;100.00
64632;BME280;58358;50.936;0.246;2023-03-25T00:20:48;99588.06;;;6.14;99.16
64632;BME280;58358;50.936;0.246;2023-03-25T00:23:13;99597.17;;;5.59;100.00
64632;BME280;58358;50.936;0.246;2023-03-25T00:25:38;99605.33;;;4.78;100.00
64632;BME280;58358;50.936;0.246;2023-03-25T00:28:04;99610.34;;;4.84;100.00
64632;BME280;58358;50.936;0.246;2023-03-25T00:30:30;99609.35;;;5.15;100.00
64632;BME280;58358;50.936;0.246;2023-03-25T00:32:56;99610.73;;;4.91;100.00
64632;BME280;58358;50.936;0.246;2023-03-25T00:35:22;99608.69;;;5.21;100.00
64632;BME280;58358;50.936;0.246;2023-03-25T00:37:47;99611.61;;;5.09;100.00
64632;BME280;58358;50.936;0.246;2023-03-25T00:40:13;99610.67;;;5.42;100.00
64632;BME280;58358;50.936;0.246;2023-03-25T00:42:38;99614.78;;;5.42;100.00
64632;BME280;58358;50.936;0.246;2023-03-25T00:45:04;99612.30;;;5.79;98.27
64632;BME280;58358;50.936;0.246;2023-03-25T00:47:29;99617.62;;;4.85;100.00
64632;BME280;58358;50.936;0.246;2023-03-25T00:49:55;99616.23;;;5.32;100.00
64632;BME280;58358;50.936;0.246;2023-03-25T00:52:20;99611.75;;;5.17;100.00
64632;BME280;58358;50.936;0.246;2023-03-25T00:54:46;99612.08;;;5.02;100.00
64632;BME280;58358;50.936;0.246;2023-03-25T00:57:11;99618.26;;;6.04;99.40
64632;BME280;58358;50.936;0.246;2023-03-25T00:59:37;99623.47;;;5.72;99.18
64632;BME280;58358;50.936;0.246;2023-03-25T01:02:02;99620.94;;;5.57;100.00
64632;BME280;58358;50.936;0.246;2023-03-25T01:04:27;99628.66;;;5.12;100.00
64632;BME280;58358;50.936;0.246;2023-03-25T01:06:53;99629.02;;;5.54;100.00
64632;BME280;58358;50.936;0.246;2023-03-25T01:09:19;99634.09;;;5.30;100.00
64632;BME280;58358;50.936;0.246;2023-03-25T01:11:45;99630.83;;;5.64;97.73
64632;BME280;58358;50.936;0.246;2023-03-25T01:14:14;99629.31;;;5.10;100.00
64632;BME280;58358;50.936;0.246;2023-03-25T01:16:35;99619.59;;;4.77;100.00
64632;BME280;58358;50.936;0.246;2023-03-25T01:19:01;99617.59;;;4.98;100.00
64632;BME280;58358;50.936;0.246;2023-03-25T01:21:27;99615.50;;;4.96;100.00
64632;BME280;58358;50.936;0.246;2023-03-25T01:23:52;99613.59;;;4.89;99.76
64632;BME280;58358;50.936;0.246;2023-03-25T01:26:18;99612.39;;;5.25;98.89
64632;BME280;58358;50.936;0.246;2023-03-25T01:28:45;99614.84;;;5.11;99.11
64632;BME280;58358;50.936;0.246;2023-03-25T01:31:10;99601.66;;;5.18;97.09
64632;BME280;58358;50.936;0.246;2023-03-25T01:33:34;99605.35;;;5.44;98.52
64632;BME280;58358;50.936;0.246;2023-03-25T01:35:59;99612.04;;;4.93;100.00
64632;BME280;58358;50.936;0.246;2023-03-25T01:38:25;99602.73;;;4.66;100.00
64632;BME280;58358;50.936;0.246;2023-03-25T01:40:51;99594.94;;;5.09;99.51
64632;BME280;58358;50.936;0.246;2023-03-25T01:43:16;99600.03;;;4.92;99.15
64632;BME280;58358;50.936;0.246;2023-03-25T01:45:42;99595.53;;;5.02;99.04
64632;BME280;58358;50.936;0.246;2023-03-25T01:48:10;99588.98;;;5.29;98.41
64632;BME280;58358;50.936;0.246;2023-03-25T01:50:35;99591.59;;;5.60;98.66
64632;BME280;58358;50.936;0.246;2023-03-25T01:53:02;99605.47;;;5.15;100.00
64632;BME280;58358;50.936;0.246;2023-03-25T01:55:25;99605.97;;;5.34;100.00
64632;BME280;58358;50.936;0.246;2023-03-25T01:57:54;99601.89;;;5.32;97.93
64632;BME280;58358;50.936;0.246;2023-03-25T02:00:17;99617.72;;;4.81;100.00
64632;BME280;58358;50.936;0.246;2023-03-25T02:02:42;99627.69;;;4.42;100.00
64632;BME280;58358;50.936;0.246;2023-03-25T02:05:11;99626.40;;;4.39;100.00
64632;BME280;58358;50.936;0.246;2023-03-25T02:07:34;99626.02;;;4.72;100.00
64632;BME280;58358;50.936;0.246;2023-03-25T02:10:01;99618.60;;;5.42;99.09
64632;BME280;58358;50.936;0.246;2023-03-25T02:12:24;99627.53;;;5.80;97.11
64632;BME280;58358;50.936;0.246;2023-03-25T02:14:50;99626.10;;;4.87;98.89
64632;BME280;58358;50.936;0.246;2023-03-25T02:17:22;99615.84;;;5.34;97.67
64632;BME280;58358;50.936;0.246;2023-03-25T02:19:57;99618.57;;;5.59;96.73
64632;BME280;58358;50.936;0.246;2023-03-25T02:22:24;99616.63;;;5.21;98.48
64632;BME280;58358;50.936;0.246;2023-03-25T02:29:36;99605.48;;;4.29;100.00
64632;BME280;58358;50.936;0.246;2023-03-25T02:32:02;99603.55;;;4.99;99.96
64632;BME280;58358;50.936;0.246;2023-03-25T02:34:36;99603.73;;;4.24;99.87
64632;BME280;58358;50.936;0.246;2023-03-25T02:39:10;99595.98;;;4.41;100.00
64632;BME280;58358;50.936;0.246;2023-03-25T02:41:39;99588.45;;;4.45;99.56
64632;BME280;58358;50.936;0.246;2023-03-25T02:44:02;99594.66;;;4.74;98.50
64632;BME280;58358;50.936;0.246;2023-03-25T02:46:25;99608.88;;;4.60;99.31
64632;BME280;58358;50.936;0.246;2023-03-25T02:48:53;99606.98;;;4.57;100.00
64632;BME280;58358;50.936;0.246;2023-03-25T02:51:20;99600.23;;;4.35;100.00
64632;BME280;58358;50.936;0.246;2023-03-25T02:53:43;99594.71;;;4.42;100.00
64632;BME280;58358;50.936;0.246;2023-03-25T02:56:09;99606.20;;;4.53;100.00
64632;BME280;58358;50.936;0.246;2023-03-25T02:58:32;99603.30;;;4.11;100.00
64632;BME280;58358;50.936;0.246;2023-03-25T03:00:58;99602.50;;;4.53;99.55
64632;BME280;58358;50.936;0.246;2023-03-25T03:03:24;99606.77;;;4.19;100.00
64632;BME280;58358;50.936;0.246;2023-03-25T03:05:50;99615.43;;;4.64;99.07
64632;BME280;58358;50.936;0.246;2023-03-25T03:08:23;99594.31;;;4.19;100.00
64632;BME280;58358;50.936;0.246;2023-03-25T03:10:48;99613.60;;;4.11;100.00
64632;BME280;58358;50.936;0.246;2023-03-25T03:13:15;99611.07;;;4.17;100.00
64632;BME280;58358;50.936;0.246;2023-03-25T03:15:38;99610.35;;;4.10;100.00
64632;BME280;58358;50.936;0.246;2023-03-25T03:18:09;99613.18;;;3.82;100.00
64632;BME280;58358;50.936;0.246;2023-03-25T03:20:29;99615.24;;;4.29;100.00
64632;BME280;58358;50.936;0.246;2023-03-25T03:22:54;99621.57;;;4.03;100.00
64632;BME280;58358;50.936;0.246;2023-03-25T03:25:20;99615.55;;;3.77;100.00
64632;BME280;58358;50.936;0.246;2023-03-25T03:27:44;99620.01;;;4.12;100.00
64632;BME280;58358;50.936;0.246;2023-03-25T03:30:09;99622.94;;;4.36;99.44
64632;BME280;58358;50.936;0.246;2023-03-25T03:32:37;99629.64;;;4.03;100.00
64632;BME280;58358;50.936;0.246;2023-03-25T03:35:00;99624.51;;;4.14;99.38
64632;BME280;58358;50.936;0.246;2023-03-25T03:37:26;99625.52;;;4.26;100.00
64632;BME280;58358;50.936;0.246;2023-03-25T03:39:48;99630.39;;;4.36;100.00
64632;BME280;58358;50.936;0.246;2023-03-25T03:42:17;99635.11;;;4.19;100.00
64632;BME280;58358;50.936;0.246;2023-03-25T03:44:40;99630.99;;;3.88;100.00
64632;BME280;58358;50.936;0.246;2023-03-25T03:47:06;99641.88;;;4.01;99.55
64632;BME280;58358;50.936;0.246;2023-03-25T03:49:34;99638.37;;;4.52;97.55
64632;BME280;58358;50.936;0.246;2023-03-25T03:51:58;99640.85;;;4.38;99.15
64632;BME280;58358;50.936;0.246;2023-03-25T03:54:24;99646.49;;;4.12;99.36
64632;BME280;58358;50.936;0.246;2023-03-25T03:56:51;99649.99;;;4.03;99.26
64632;BME280;58358;50.936;0.246;2023-03-25T03:59:16;99647.49;;;4.07;99.27
64632;BME280;58358;50.936;0.246;2023-03-25T04:01:41;99650.73;;;4.01;100.00
64632;BME280;58358;50.936;0.246;2023-03-25T04:04:06;99640.14;;;3.93;100.00
64632;BME280;58358;50.936;0.246;2023-03-25T04:06:34;99653.22;;;3.81;100.00
64632;BME280;58358;50.936;0.246;2023-03-25T04:08:58;99657.94;;;4.07;100.00
64632;BME280;58358;50.936;0.246;2023-03-25T04:11:23;99667.08;;;4.57;100.00
64632;BME280;58358;50.936;0.246;2023-03-25T04:13:49;99665.65;;;4.64;98.84
64632;BME280;58358;50.936;0.246;2023-03-25T04:16:12;99668.18;;;5.07;98.99
64632;BME280;58358;50.936;0.246;2023-03-25T04:18:38;99670.90;;;4.38;100.00
64632;BME280;58358;50.936;0.246;2023-03-25T04:21:04;99673.67;;;3.68;100.00
64632;BME280;58358;50.936;0.246;2023-03-25T04:23:29;99676.44;;;3.77;100.00
64632;BME280;58358;50.936;0.246;2023-03-25T04:25:55;99686.53;;;3.98;100.00
64632;BME280;58358;50.936;0.246;2023-03-25T04:28:20;99688.81;;;4.13;100.00
64632;BME280;58358;50.936;0.246;2023-03-25T04:30:46;99697.68;;;4.20;100.00
64632;BME280;58358;50.936;0.246;2023-03-25T04:33:12;99701.16;;;4.39;100.00
64632;BME280;58358;50.936;0.246;2023-03-25T04:35:37;99697.48;;;4.71;100.00
64632;BME280;58358;50.936;0.246;2023-03-25T04:38:03;99702.23;;;4.30;100.00
64632;BME280;58358;50.936;0.246;2023-03-25T04:40:28;99703.84;;;4.26;100.00
64632;BME280;58358;50.936;0.246;2023-03-25T04:42:54;99694.63;;;4.21;100.00
64632;BME280;58358;50.936;0.246;2023-03-25T04:45:19;99709.35;;;4.40;100.00
64632;BME280;58358;50.936;0.246;2023-03-25T04:47:46;99710.19;;;4.38;100.00
64632;BME280;58358;50.936;0.246;2023-03-25T04:50:17;99700.85;;;4.15;100.00
64632;BME280;58358;50.936;0.246;2023-03-25T04:52:35;99709.94;;;4.34;100.00
64632;BME280;58358;50.936;0.246;2023-03-25T04:55:01;99706.54;;;4.32;100.00
64632;BME280;58358;50.936;0.246;2023-03-25T04:57:26;99707.10;;;3.98;100.00
64632;BME280;58358;50.936;0.246;2023-03-25T04:59:53;99716.71;;;4.33;100.00
64632;BME280;58358;50.936;0.246;2023-03-25T05:02:18;99721.51;;;4.42;100.00
64632;BME280;58358;50.936;0.246;2023-03-25T05:04:44;99721.78;;;4.55;100.00
64632;BME280;58358;50.936;0.246;2023-03-25T05:07:10;99714.71;;;4.76;99.40
64632;BME280;58358;50.936;0.246;2023-03-25T05:09:35;99722.81;;;4.38;100.00
64632;BME280;58358;50.936;0.246;2023-03-25T05:12:01;99720.04;;;4.24;100.00
64632;BME280;58358;50.936;0.246;2023-03-25T05:14:26;99729.32;;;4.59;100.00
64632;BME280;58358;50.936;0.246;2023-03-25T05:16:51;99728.65;;;4.65;99.60
64632;BME280;58358;50.936;0.246;2023-03-25T05:19:17;99738.14;;;4.78;100.00
64632;BME280;58358;50.936;0.246;2023-03-25T05:21:43;99740.15;;;4.76;100.00
64632;BME280;58358;50.936;0.246;2023-03-25T05:24:10;99749.17;;;4.69;100.00
64632;BME280;58358;50.936;0.246;2023-03-25T05:26:35;99743.15;;;4.41;100.00
64632;BME280;58358;50.936;0.246;2023-03-25T05:29:00;99747.76;;;4.06;100.00
64632;BME280;58358;50.936;0.246;2023-03-25T05:31:25;99748.03;;;4.92;100.00
64632;BME280;58358;50.936;0.246;2023-03-25T05:33:51;99752.69;;;4.41;100.00
64632;BME280;58358;50.936;0.246;2023-03-25T05:36:16;99745.98;;;4.72;100.00
64632;BME280;58358;50.936;0.246;2023-03-25T05:38:42;99758.72;;;4.50;100.00
64632;BME280;58358;50.936;0.246;2023-03-25T05:41:10;99750.78;;;4.23;100.00
64632;BME280;58358;50.936;0.246;2023-03-25T05:43:33;99747.91;;;4.33;100.00
64632;BME280;58358;50.936;0.246;2023-03-25T05:45:58;99748.46;;;4.59;100.00
64632;BME280;58358;50.936;0.246;2023-03-25T05:48:24;99761.04;;;4.79;99.82
64632;BME280;58358;50.936;0.246;2023-03-25T05:50:50;99763.80;;;4.51;100.00
64632;BME280;58358;50.936;0.246;2023-03-25T05:53:16;99770.00;;;4.57;100.00
64632;BME280;58358;50.936;0.246;2023-03-25T05:55:41;99773.25;;;4.23;100.00
64632;BME280;58358;50.936;0.246;2023-03-25T05:58:06;99784.12;;;4.64;100.00
64632;BME280;58358;50.936;0.246;2023-03-25T06:00:31;99788.24;;;4.09;100.00
64632;BME280;58358;50.936;0.246;2023-03-25T06:02:57;99793.97;;;4.63;100.00
64632;BME280;58358;50.936;0.246;2023-03-25T06:05:22;99794.03;;;4.31;100.00
64632;BME280;58358;50.936;0.246;2023-03-25T06:07:48;99809.64;;;4.44;100.00
64632;BME280;58358;50.936;0.246;2023-03-25T06:10:14;99807.17;;;5.06;100.00
64632;BME280;58358;50.936;0.246;2023-03-25T06:12:39;99811.36;;;5.07;100.00
64632;BME280;58358;50.936;0.246;2023-03-25T06:15:07;99810.69;;;5.05;100.00
64632;BME280;58358;50.936;0.246;2023-03-25T06:17:30;99803.80;;;4.90;100.00
64632;BME280;58358;50.936;0.246;2023-03-25T06:19:56;99804.33;;;4.92;100.00
64632;BME280;58358;50.936;0.246;2023-03-25T06:22:21;99803.09;;;5.21;100.00
64632;BME280;58358;50.936;0.246;2023-03-25T06:24:46;99812.84;;;5.36;98.89
64632;BME280;58358;50.936;0.246;2023-03-25T06:27:13;99808.43;;;5.05;99.24
64632;BME280;58358;50.936;0.246;2023-03-25T06:29:37;99814.53;;;4.84;100.00
64632;BME280;58358;50.936;0.246;2023-03-25T06:32:03;99816.11;;;5.01;100.00
64632;BME280;58358;50.936;0.246;2023-03-25T06:34:28;99824.85;;;5.63;98.75
64632;BME280;58358;50.936;0.246;2023-03-25T06:36:54;99832.50;;;5.86;98.95
64632;BME280;58358;50.936;0.246;2023-03-25T06:39:19;99837.41;;;5.39;98.41
64632;BME280;58358;50.936;0.246;2023-03-25T06:41:45;99832.45;;;5.71;100.00
64632;BME280;58358;50.936;0.246;2023-03-25T06:44:11;99836.57;;;5.19;100.00
64632;BME280;58358;50.936;0.246;2023-03-25T06:46:36;99845.26;;;5.29;99.21
64632;BME280;58358;50.936;0.246;2023-03-25T06:49:02;99844.17;;;5.31;100.00
64632;BME280;58358;50.936;0.246;2023-03-25T06:51:27;99839.05;;;5.47;98.64
64632;BME280;58358;50.936;0.246;2023-03-25T06:53:53;99851.84;;;5.34;99.26
64632;BME280;58358;50.936;0.246;2023-03-25T06:56:18;99836.39;;;5.40;98.09
64632;BME280;58358;50.936;0.246;2023-03-25T06:58:43;99852.82;;;5.51;97.93
64632;BME280;58358;50.936;0.246;2023-03-25T07:01:09;99850.44;;;5.47;98.79
64632;BME280;58358;50.936;0.246;2023-03-25T07:03:36;99855.32;;;5.08;100.00
64632;BME280;58358;50.936;0.246;2023-03-25T07:06:00;99850.57;;;5.69;99.24
64632;BME280;58358;50.936;0.246;2023-03-25T07:08:26;99859.57;;;5.67;97.50
64632;BME280;58358;50.936;0.246;2023-03-25T07:10:52;99857.76;;;5.75;97.34
64632;BME280;58358;50.936;0.246;2023-03-25T07:13:17;99858.77;;;5.41;97.97
64632;BME280;58358;50.936;0.246;2023-03-25T07:15:43;99860.01;;;6.22;95.92
64632;BME280;58358;50.936;0.246;2023-03-25T07:18:09;99857.72;;;5.52;96.54
64632;BME280;58358;50.936;0.246;2023-03-25T07:20:34;99861.66;;;5.40;99.21
64632;BME280;58358;50.936;0.246;2023-03-25T07:22:59;99862.11;;;5.49;98.68
64632;BME280;58358;50.936;0.246;2023-03-25T07:25:25;99861.65;;;5.76;97.72
64632;BME280;58358;50.936;0.246;2023-03-25T07:27:50;99875.56;;;5.75;96.44
64632;BME280;58358;50.936;0.246;2023-03-25T07:30:17;99870.45;;;5.76;97.23
64632;BME280;58358;50.936;0.246;2023-03-25T07:32:43;99867.09;;;5.63;95.98
64632;BME280;58358;50.936;0.246;2023-03-25T07:35:08;99869.37;;;5.69;97.17
64632;BME280;58358;50.936;0.246;2023-03-25T07:37:33;99860.05;;;5.59;97.39
64632;BME280;58358;50.936;0.246;2023-03-25T07:39:58;99858.58;;;5.04;97.93
64632;BME280;58358;50.936;0.246;2023-03-25T07:42:24;99868.29;;;5.49;98.34
64632;BME280;58358;50.936;0.246;2023-03-25T07:44:50;99868.21;;;5.43;98.96
64632;BME280;58358;50.936;0.246;2023-03-25T07:47:16;99872.70;;;5.39;98.99
64632;BME280;58358;50.936;0.246;2023-03-25T07:49:41;99869.75;;;5.33;100.00
64632;BME280;58358;50.936;0.246;2023-03-25T07:52:07;99868.24;;;5.14;97.79
64632;BME280;58358;50.936;0.246;2023-03-25T07:54:33;99888.85;;;5.76;96.32
64632;BME280;58358;50.936;0.246;2023-03-25T07:56:58;99872.90;;;5.96;95.45
64632;BME280;58358;50.936;0.246;2023-03-25T07:59:24;99879.79;;;6.12;94.14
64632;BME280;58358;50.936;0.246;2023-03-25T08:01:50;99873.90;;;5.55;95.08
64632;BME280;58358;50.936;0.246;2023-03-25T08:04:15;99872.74;;;5.56;93.90
64632;BME280;58358;50.936;0.246;2023-03-25T08:06:41;99877.01;;;5.73;94.54
64632;BME280;58358;50.936;0.246;2023-03-25T08:09:08;99881.82;;;5.96;91.90
64632;BME280;58358;50.936;0.246;2023-03-25T08:11:33;99885.88;;;6.89;89.64
64632;BME280;58358;50.936;0.246;2023-03-25T08:13:58;99878.06;;;5.89;92.72
64632;BME280;58358;50.936;0.246;2023-03-25T08:16:24;99877.03;;;5.80;92.92
64632;BME280;58358;50.936;0.246;2023-03-25T08:18:49;99884.58;;;6.28;91.88
64632;BME280;58358;50.936;0.246;2023-03-25T08:21:15;99871.63;;;6.08;92.48
64632;BME280;58358;50.936;0.246;2023-03-25T08:23:40;99877.53;;;6.39;90.23
64632;BME280;58358;50.936;0.246;2023-03-25T08:26:06;99881.69;;;7.21;87.65
64632;BME280;58358;50.936;0.246;2023-03-25T08:28:31;99881.91;;;6.59;89.40
64632;BME280;58358;50.936;0.246;2023-03-25T08:30:57;99886.31;;;6.46;90.59
64632;BME280;58358;50.936;0.246;2023-03-25T08:33:24;99898.08;;;6.70;89.89
64632;BME280;58358;50.936;0.246;2023-03-25T08:35:49;99888.11;;;6.52;89.60
64632;BME280;58358;50.936;0.246;2023-03-25T08:38:14;99892.03;;;6.54;88.17
64632;BME280;58358;50.936;0.246;2023-03-25T08:40:41;99898.20;;;6.48;89.68
64632;BME280;58358;50.936;0.246;2023-03-25T08:43:06;99908.60;;;6.55;89.08
64632;BME280;58358;50.936;0.246;2023-03-25T08:45:31;99907.12;;;6.85;87.27
64632;BME280;58358;50.936;0.246;2023-03-25T08:47:57;99918.25;;;6.60;86.65
64632;BME280;58358;50.936;0.246;2023-03-25T08:50:23;99913.25;;;7.88;83.21
64632;BME280;58358;50.936;0.246;2023-03-25T08:52:48;99918.04;;;7.87;83.22
64632;BME280;58358;50.936;0.246;2023-03-25T08:55:14;99928.17;;;7.12;85.39
64632;BME280;58358;50.936;0.246;2023-03-25T08:57:39;99930.77;;;6.68;85.36
64632;BME280;58358;50.936;0.246;2023-03-25T09:00:06;99925.00;;;6.69;86.55
64632;BME280;58358;50.936;0.246;2023-03-25T09:02:31;99934.52;;;7.01;84.76
64632;BME280;58358;50.936;0.246;2023-03-25T09:04:56;99917.60;;;6.89;84.60
64632;BME280;58358;50.936;0.246;2023-03-25T09:07:22;99912.01;;;7.19;84.75
64632;BME280;58358;50.936;0.246;2023-03-25T09:09:48;99926.82;;;7.23;83.69
64632;BME280;58358;50.936;0.246;2023-03-25T09:12:14;99926.30;;;7.29;83.17
64632;BME280;58358;50.936;0.246;2023-03-25T09:14:40;99921.56;;;7.46;82.87
64632;BME280;58358;50.936;0.246;2023-03-25T09:17:05;99926.49;;;7.50;81.03
64632;BME280;58358;50.936;0.246;2023-03-25T09:19:33;99927.59;;;7.87;80.46
64632;BME280;58358;50.936;0.246;2023-03-25T09:21:57;99934.47;;;7.79;78.85
64632;BME280;58358;50.936;0.246;2023-03-25T09:24:22;99945.56;;;8.41;78.61
64632;BME280;58358;50.936;0.246;2023-03-25T09:26:48;99945.68;;;7.82;80.05
64632;BME280;58358;50.936;0.246;2023-03-25T09:29:14;99939.65;;;7.89;79.52
64632;BME280;58358;50.936;0.246;2023-03-25T09:31:40;99949.10;;;8.14;78.19
64632;BME280;58358;50.936;0.246;2023-03-25T09:34:05;99932.04;;;7.46;79.62
64632;BME280;58358;50.936;0.246;2023-03-25T09:36:31;99966.38;;;7.49;80.22
64632;BME280;58358;50.936;0.246;2023-03-25T09:38:57;99963.45;;;6.86;82.47
64632;BME280;58358;50.936;0.246;2023-03-25T09:41:31;99969.63;;;7.36;82.57
64632;BME280;58358;50.936;0.246;2023-03-25T09:43:56;99965.53;;;7.86;79.08
64632;BME280;58358;50.936;0.246;2023-03-25T09:46:14;99976.23;;;7.79;78.34
64632;BME280;58358;50.936;0.246;2023-03-25T09:48:41;99969.37;;;8.00;77.34
64632;BME280;58358;50.936;0.246;2023-03-25T09:51:09;99971.69;;;7.87;77.80
64632;BME280;58358;50.936;0.246;2023-03-25T09:53:36;99981.44;;;8.26;77.51
64632;BME280;58358;50.936;0.246;2023-03-25T09:55:57;99981.16;;;7.99;77.74
64632;BME280;58358;50.936;0.246;2023-03-25T09:58:27;99981.18;;;8.14;77.80
64632;BME280;58358;50.936;0.246;2023-03-25T10:00:49;99979.62;;;8.73;75.85
64632;BME280;58358;50.936;0.246;2023-03-25T10:03:17;99978.59;;;9.39;72.82
64632;BME280;58358;50.936;0.246;2023-03-25T10:05:50;99983.11;;;8.95;72.13
64632;BME280;58358;50.936;0.246;2023-03-25T10:08:11;99992.67;;;8.31;73.64
64632;BME280;58358;50.936;0.246;2023-03-25T10:10:34;99989.91;;;9.28;72.48
64632;BME280;58358;50.936;0.246;2023-03-25T10:13:04;99986.91;;;8.55;73.49
64632;BME280;58358;50.936;0.246;2023-03-25T10:15:31;100003.84;;;8.29;75.46
64632;BME280;58358;50.936;0.246;2023-03-25T10:17:56;99995.53;;;8.92;74.71
64632;BME280;58358;50.936;0.246;2023-03-25T10:20:17;100003.54;;;8.88;72.69
64632;BME280;58358;50.936;0.246;2023-03-25T10:22:48;100006.49;;;8.97;72.23
64632;BME280;58358;50.936;0.246;2023-03-25T10:25:11;100009.31;;;8.82;73.04
64632;BME280;58358;50.936;0.246;2023-03-25T10:27:34;100010.66;;;9.03;70.04
64632;BME280;58358;50.936;0.246;2023-03-25T10:30:01;100016.26;;;8.52;73.31
64632;BME280;58358;50.936;0.246;2023-03-25T10:32:29;100022.58;;;8.06;76.26
64632;BME280;58358;50.936;0.246;2023-03-25T10:34:50;100016.56;;;7.87;77.34
64632;BME280;58358;50.936;0.246;2023-03-25T10:37:19;100019.41;;;8.58;76.52
64632;BME280;58358;50.936;0.246;2023-03-25T10:39:41;100031.38;;;8.14;77.24
64632;BME280;58358;50.936;0.246;2023-03-25T10:42:14;100023.59;;;8.35;79.33
64632;BME280;58358;50.936;0.246;2023-03-25T10:44:30;100035.31;;;8.47;79.33
64632;BME280;58358;50.936;0.246;2023-03-25T10:46:57;100038.66;;;8.60;80.47
64632;BME280;58358;50.936;0.246;2023-03-25T10:49:23;100038.62;;;8.25;81.35
64632;BME280;58358;50.936;0.246;2023-03-25T10:51:48;100048.49;;;7.78;83.68
64632;BME280;58358;50.936;0.246;2023-03-25T10:54:13;100054.52;;;8.05;81.57
64632;BME280;58358;50.936;0.246;2023-03-25T10:56:41;100062.99;;;7.92;82.11
64632;BME280;58358;50.936;0.246;2023-03-25T10:59:09;100061.49;;;8.20;81.31
64632;BME280;58358;50.936;0.246;2023-03-25T11:01:34;100061.26;;;8.45;81.20
64632;BME280;58358;50.936;0.246;2023-03-25T11:03:56;100063.31;;;8.32;81.33
64632;BME280;58358;50.936;0.246;2023-03-25T11:06:23;100064.12;;;8.71;81.25
64632;BME280;58358;50.936;0.246;2023-03-25T11:08:56;100061.99;;;8.75;80.79
64632;BME280;58358;50.936;0.246;2023-03-25T11:11:11;100065.85;;;8.56;80.81
64632;BME280;58358;50.936;0.246;2023-03-25T11:13:37;100075.02;;;10.05;74.74
64632;BME280;58358;50.936;0.246;2023-03-25T11:16:03;100076.15;;;10.05;71.30
64632;BME280;58358;50.936;0.246;2023-03-25T11:18:32;100070.56;;;10.50;70.10
64632;BME280;58358;50.936;0.246;2023-03-25T11:20:56;100071.41;;;9.54;74.81
64632;BME280;58358;50.936;0.246;2023-03-25T11:23:25;100080.92;;;9.77;76.42
64632;BME280;58358;50.936;0.246;2023-03-25T11:25:45;100086.41;;;9.27;78.03
64632;BME280;58358;50.936;0.246;2023-03-25T11:28:14;100091.70;;;8.74;80.70
64632;BME280;58358;50.936;0.246;2023-03-25T11:30:36;100090.48;;;9.07;80.71
64632;BME280;58358;50.936;0.246;2023-03-25T11:33:04;100088.48;;;8.42;83.27
64632;BME280;58358;50.936;0.246;2023-03-25T11:35:29;100091.50;;;8.59;83.30
64632;BME280;58358;50.936;0.246;2023-03-25T11:37:55;100101.71;;;8.82;82.93
64632;BME280;58358;50.936;0.246;2023-03-25T11:40:19;100104.23;;;9.47;79.68
64632;BME280;58358;50.936;0.246;2023-03-25T11:42:46;100111.57;;;9.42;78.38
64632;BME280;58358;50.936;0.246;2023-03-25T11:45:18;100105.32;;;9.04;79.71
64632;BME280;58358;50.936;0.246;2023-03-25T11:47:37;100100.29;;;9.08;80.21
64632;BME280;58358;50.936;0.246;2023-03-25T11:50:00;100107.34;;;8.98;80.39
64632;BME280;58358;50.936;0.246;2023-03-25T11:52:27;100101.27;;;9.08;79.38
64632;BME280;58358;50.936;0.246;2023-03-25T11:54:53;100115.23;;;9.77;77.82
64632;BME280;58358;50.936;0.246;2023-03-25T11:57:19;100110.47;;;8.14;81.84
64632;BME280;58358;50.936;0.246;2023-03-25T11:59:44;100106.57;;;8.71;81.25
64632;BME280;58358;50.936;0.246;2023-03-25T12:02:19;100109.93;;;8.07;83.74
64632;BME280;58358;50.936;0.246;2023-03-25T12:04:34;100108.52;;;8.90;82.48
64632;BME280;58358;50.936;0.246;2023-03-25T12:07:03;100109.92;;;9.27;80.16
64632;BME280;58358;50.936;0.246;2023-03-25T12:09:26;100115.59;;;9.03;81.63
64632;BME280;58358;50.936;0.246;2023-03-25T12:11:59;100119.93;;;8.88;82.19
64632;BME280;58358;50.936;0.246;2023-03-25T12:14:27;100116.41;;;8.76;84.39
64632;BME280;58358;50.936;0.246;2023-03-25T12:16:46;100117.92;;;8.81;83.10
64632;BME280;58358;50.936;0.246;2023-03-25T12:19:15;100115.41;;;8.94;81.80
64632;BME280;58358;50.936;0.246;2023-03-25T12:21:49;100114.77;;;8.93;79.75
64632;BME280;58358;50.936;0.246;2023-03-25T12:24:08;100114.01;;;9.34;79.64
64632;BME280;58358;50.936;0.246;2023-03-25T12:26:28;100107.98;;;8.91;80.58
64632;BME280;58358;50.936;0.246;2023-03-25T12:29:14;100125.17;;;9.42;77.67
64632;BME280;58358;50.936;0.246;2023-03-25T12:31:24;100108.03;;;8.20;80.97
64632;BME280;58358;50.936;0.246;2023-03-25T12:33:49;100105.70;;;8.70;80.70
64632;BME280;58358;50.936;0.246;2023-03-25T12:36:19;100100.35;;;9.51;78.31
64632;BME280;58358;50.936;0.246;2023-03-25T12:38:40;100102.22;;;9.36;78.81
64632;BME280;58358;50.936;0.246;2023-03-25T12:41:09;100103.14;;;9.41;78.90
64632;BME280;58358;50.936;0.246;2023-03-25T12:43:29;100113.22;;;9.05;78.96
64632;BME280;58358;50.936;0.246;2023-03-25T12:45:58;100114.87;;;9.47;79.80
64632;BME280;58358;50.936;0.246;2023-03-25T12:48:23;100118.57;;;8.96;81.09
64632;BME280;58358;50.936;0.246;2023-03-25T12:50:49;100127.82;;;8.26;90.68
64632;BME280;58358;50.936;0.246;2023-03-25T12:53:19;100130.33;;;8.07;93.44
64632;BME280;58358;50.936;0.246;2023-03-25T12:55:45;100132.91;;;7.82;93.07
64632;BME280;58358;50.936;0.246;2023-03-25T12:58:07;100135.59;;;8.34;92.20
64632;BME280;58358;50.936;0.246;2023-03-25T13:00:29;100134.40;;;8.08;93.10
64632;BME280;58358;50.936;0.246;2023-03-25T13:03:01;100136.09;;;8.20;93.21